Time;durP1;ratioP1;P1;durP2;ratioP2;P2;SDS_P1;SDS_P2;PMS_P1;PMS_P2;Temp;Humidity;BMP_temperature;BMP_pressure;BME280_temperature;BME280_humidity;BME280_pressure;Samples;Min_cycle;Max_cycle;Signal;HPM_P1;HPM_P2
2022/05/07 00:01:05;;;;;;;20.15;15.02;;;;;14.50;96837.00;;;;8462089;27;20230;-72
2022/05/07 00:05:10;;;;;;;18.83;13.45;;;;;14.50;96835.00;;;;8464079;27;20225;-70
2022/05/07 00:09:13;;;;;;;22.90;13.65;;;;;14.50;96840.00;;;;8410498;27;20243;-71
2022/05/07 00:13:16;;;;;;;18.45;13.38;;;;;14.40;96830.00;;;;8444790;27;20240;-69
2022/05/07 00:21:41;;;;;;;24.92;14.90;;;;;14.30;96833.00;;;;8467930;27;20234;-70
2022/05/07 00:25:44;;;;;;;20.52;14.52;;;;;14.20;96833.00;;;;8439212;27;20221;-69
2022/05/07 00:29:48;;;;;;;22.55;14.43;;;;;14.20;96816.00;;;;8434918;27;20237;-68
2022/05/07 00:33:51;;;;;;;22.92;13.88;;;;;14.10;96821.00;;;;8433678;27;20681;-70
2022/05/07 00:37:55;;;;;;;22.85;15.48;;;;;14.10;96818.00;;;;8490287;27;20232;-71
2022/05/07 00:42:03;;;;;;;24.55;14.90;;;;;14.00;96812.00;;;;8393125;27;20232;-69
2022/05/07 00:46:06;;;;;;;22.02;14.52;;;;;13.90;96810.00;;;;8473172;27;20232;-70
2022/05/07 00:54:28;;;;;;;21.90;14.50;;;;;13.90;96801.00;;;;8447164;27;20229;-69
2022/05/07 00:58:32;;;;;;;20.10;14.05;;;;;13.90;96801.00;;;;8482343;27;20307;-69
2022/05/07 01:02:36;;;;;;;20.33;14.35;;;;;13.90;96800.00;;;;8437328;27;20239;-70
2022/05/07 01:06:40;;;;;;;22.20;14.52;;;;;13.80;96795.00;;;;8493535;27;20233;-70
2022/05/07 01:10:46;;;;;;;21.65;15.20;;;;;13.80;96793.00;;;;8430826;27;20232;-69
2022/05/07 01:14:49;;;;;;;21.67;14.80;;;;;13.70;96797.00;;;;8476902;27;20228;-71
2022/05/07 01:18:52;;;;;;;19.08;13.70;;;;;13.70;96790.00;;;;8478583;27;20874;-69
2022/05/07 01:22:59;;;;;;;19.67;13.88;;;;;13.70;96788.00;;;;8481826;27;20227;-70
2022/05/07 01:27:02;;;;;;;23.05;15.02;;;;;13.70;96792.00;;;;8491398;27;20228;-69
2022/05/07 01:31:05;;;;;;;19.00;14.35;;;;;13.70;96782.00;;;;8495128;27;20693;-69
2022/05/07 01:35:09;;;;;;;21.83;14.23;;;;;13.70;96779.00;;;;8488175;27;20277;-69
2022/05/07 01:39:14;;;;;;;20.23;14.02;;;;;13.70;96773.00;;;;8482833;27;20223;-69
2022/05/07 01:43:17;;;;;;;19.85;13.60;;;;;13.70;96772.00;;;;8451797;27;20755;-70
2022/05/07 01:51:41;;;;;;;20.35;14.48;;;;;13.60;96772.00;;;;8433482;27;20296;-70
2022/05/07 01:55:45;;;;;;;18.10;13.60;;;;;13.50;96773.00;;;;8471075;27;20668;-70
2022/05/07 01:59:49;;;;;;;20.33;13.50;;;;;13.50;96763.00;;;;8473619;27;20750;-68
2022/05/07 02:03:52;;;;;;;21.48;13.65;;;;;13.40;96756.00;;;;8437241;27;20687;-72
2022/05/07 02:07:56;;;;;;;21.10;13.65;;;;;13.30;96762.00;;;;8428441;27;20860;-69
2022/05/07 02:12:01;;;;;;;23.05;12.80;;;;;13.20;96754.00;;;;8418930;27;20229;-68
2022/05/07 02:16:04;;;;;;;22.23;13.13;;;;;13.20;96758.00;;;;8482261;27;20248;-69
2022/05/07 02:20:09;;;;;;;24.98;13.82;;;;;13.10;96757.00;;;;8473586;28;20227;-69
2022/05/07 02:24:12;;;;;;;22.73;15.10;;;;;13.00;96760.00;;;;8473160;27;20227;-69
2022/05/07 02:28:17;;;;;;;19.77;14.40;;;;;12.90;96755.00;;;;8422134;27;20250;-68
2022/05/07 02:32:21;;;;;;;22.08;15.15;;;;;12.90;96761.00;;;;8357961;28;20229;-69
2022/05/07 02:36:24;;;;;;;21.67;14.35;;;;;12.80;96750.00;;;;8476851;27;20303;-68
2022/05/07 02:40:27;;;;;;;26.70;15.27;;;;;12.80;96762.00;;;;8460138;27;20242;-68
2022/05/07 02:44:31;;;;;;;21.98;14.23;;;;;12.70;96755.00;;;;8442863;28;20684;-70
2022/05/07 02:48:36;;;;;;;20.85;14.13;;;;;12.70;96759.00;;;;8436821;28;20229;-69
2022/05/07 02:52:39;;;;;;;19.65;14.13;;;;;12.60;96755.00;;;;8460524;27;20230;-69
2022/05/07 02:56:43;;;;;;;20.48;14.07;;;;;12.60;96760.00;;;;8426644;27;20231;-69
2022/05/07 03:00:49;;;;;;;18.50;13.77;;;;;12.50;96755.00;;;;8440598;22;20307;-71
2022/05/07 03:04:53;;;;;;;21.88;14.02;;;;;12.50;96756.00;;;;8444179;22;20229;-70
2022/05/07 03:08:56;;;;;;;22.17;13.27;;;;;12.40;96762.00;;;;8377950;28;20230;-71
2022/05/07 03:13:00;;;;;;;24.30;14.75;;;;;12.40;96764.00;;;;8425662;28;20272;-70
2022/05/07 03:17:05;;;;;;;22.65;14.80;;;;;12.40;96760.00;;;;8358285;28;20667;-70
2022/05/07 03:21:08;;;;;;;19.75;13.48;;;;;12.30;96752.00;;;;8336325;28;20242;-70
2022/05/07 03:25:11;;;;;;;20.85;14.13;;;;;12.20;96760.00;;;;8425196;28;20224;-70
2022/05/07 03:29:14;;;;;;;23.02;14.63;;;;;12.20;96752.00;;;;8349966;28;20239;-69
2022/05/07 03:33:19;;;;;;;22.63;14.15;;;;;12.10;96752.00;;;;8345491;27;20226;-71
2022/05/07 03:37:22;;;;;;;18.67;13.63;;;;;12.10;96753.00;;;;8325353;28;20224;-71
2022/05/07 03:41:26;;;;;;;21.55;14.13;;;;;12.00;96750.00;;;;8428635;27;20239;-70
2022/05/07 03:45:29;;;;;;;20.02;13.77;;;;;11.90;96749.00;;;;8439719;27;20239;-69
2022/05/07 03:49:34;;;;;;;19.40;13.85;;;;;11.90;96742.00;;;;8386796;28;20233;-70
2022/05/07 03:53:37;;;;;;;20.13;14.82;;;;;11.90;96746.00;;;;8349786;27;20642;-70
2022/05/07 03:57:40;;;;;;;20.55;12.07;;;;;11.90;96751.00;;;;8387719;28;20230;-69
2022/05/07 04:01:44;;;;;;;19.92;12.45;;;;;12.00;96758.00;;;;8344928;28;20227;-69
2022/05/07 04:05:49;;;;;;;18.08;11.95;;;;;12.10;96761.00;;;;8398193;27;20230;-69
2022/05/07 04:09:54;;;;;;;16.58;11.93;;;;;12.10;96754.00;;;;8455997;27;20227;-70
2022/05/07 04:13:57;;;;;;;15.77;11.50;;;;;12.10;96756.00;;;;8347362;27;20222;-70
2022/05/07 04:18:01;;;;;;;17.25;11.70;;;;;12.10;96761.00;;;;8451007;27;20233;-70
2022/05/07 04:22:05;;;;;;;19.00;11.88;;;;;12.10;96767.00;;;;8450598;27;20590;-68
2022/05/07 04:26:10;;;;;;;19.02;11.55;;;;;12.20;96770.00;;;;8437695;27;20230;-69
2022/05/07 04:30:14;;;;;;;19.00;11.70;;;;;12.20;96776.00;;;;8402166;28;20247;-68
2022/05/07 04:34:17;;;;;;;19.10;11.68;;;;;12.20;96772.00;;;;8394329;28;20219;-70
2022/05/07 04:38:22;;;;;;;15.98;11.35;;;;;12.20;96772.00;;;;8393611;28;20697;-69
2022/05/07 04:42:25;;;;;;;15.95;11.38;;;;;12.20;96774.00;;;;8390623;28;20655;-70
2022/05/07 04:46:28;;;;;;;16.65;10.82;;;;;12.30;96775.00;;;;8391372;28;20233;-68
2022/05/07 04:50:32;;;;;;;17.27;11.07;;;;;12.40;96779.00;;;;8394826;28;20228;-69
2022/05/07 04:54:38;;;;;;;14.35;10.68;;;;;12.50;96782.00;;;;8372542;28;20237;-67
2022/05/07 04:58:41;;;;;;;17.42;10.45;;;;;12.50;96783.00;;;;8387870;28;20231;-70
2022/05/07 05:02:44;;;;;;;16.42;10.50;;;;;12.60;96784.00;;;;8387432;28;20230;-75
2022/05/07 05:06:48;;;;;;;14.73;11.15;;;;;12.70;96789.00;;;;8403965;28;20229;-69
2022/05/07 05:10:52;;;;;;;14.18;10.43;;;;;12.80;96791.00;;;;8409167;28;20320;-70
2022/05/07 05:15:05;;;;;;;16.58;10.82;;;;;12.90;96796.00;;;;8403352;28;20226;-68
2022/05/07 05:19:08;;;;;;;19.00;11.75;;;;;13.00;96800.00;;;;8410091;28;20351;-70
2022/05/07 05:23:11;;;;;;;17.33;10.98;;;;;13.10;96798.00;;;;8412414;28;20237;-69
2022/05/07 05:27:16;;;;;;;16.30;10.68;;;;;13.20;96803.00;;;;8410786;28;20225;-70
2022/05/07 05:31:19;;;;;;;18.88;11.02;;;;;13.30;96813.00;;;;8400991;28;20325;-73
2022/05/07 05:35:22;;;;;;;16.40;10.55;;;;;13.40;96803.00;;;;8400504;28;20230;-69
2022/05/07 05:39:25;;;;;;;14.30;9.55;;;;;13.50;96809.00;;;;8393470;28;20235;-68
2022/05/07 05:43:34;;;;;;;15.32;10.70;;;;;13.70;96818.00;;;;8391448;28;20709;-69
2022/05/07 05:47:38;;;;;;;18.88;10.63;;;;;13.80;96813.00;;;;8411350;28;20236;-71
2022/05/07 05:51:41;;;;;;;17.48;10.23;;;;;14.00;96818.00;;;;8399605;28;20233;-67
2022/05/07 05:55:46;;;;;;;17.15;10.27;;;;;14.10;96826.00;;;;8404659;28;20231;-70
2022/05/07 05:59:51;;;;;;;16.35;9.88;;;;;14.20;96835.00;;;;8408631;28;20233;-70
2022/05/07 06:03:54;;;;;;;13.82;9.35;;;;;14.30;96828.00;;;;8405037;28;20241;-68
2022/05/07 06:07:57;;;;;;;13.32;9.45;;;;;14.50;96832.00;;;;8399083;28;20954;-69
2022/05/07 06:12:00;;;;;;;14.38;9.50;;;;;14.60;96835.00;;;;8392779;28;20313;-68
2022/05/07 06:16:05;;;;;;;13.88;9.80;;;;;14.80;96834.00;;;;8397653;28;20325;-70
2022/05/07 06:20:09;;;;;;;12.45;9.65;;;;;15.10;96832.00;;;;8410305;28;20237;-69
2022/05/07 06:28:33;;;;;;;17.35;10.40;;;;;15.40;96835.00;;;;8410660;28;20223;-68
2022/05/07 06:32:40;;;;;;;17.42;9.40;;;;;15.50;96837.00;;;;8401554;28;20269;-70
2022/05/07 06:36:43;;;;;;;11.88;9.25;;;;;15.60;96830.00;;;;8338358;28;20587;-67
2022/05/07 06:40:46;;;;;;;15.50;9.90;;;;;15.70;96837.00;;;;8412019;28;20231;-69
2022/05/07 06:44:50;;;;;;;15.60;9.80;;;;;15.60;96830.00;;;;8390374;28;20238;-67
2022/05/07 06:48:54;;;;;;;15.02;10.20;;;;;15.70;96844.00;;;;8406779;28;20227;-68
2022/05/07 06:52:58;;;;;;;17.73;10.98;;;;;15.80;96845.00;;;;8379333;28;20226;-67
2022/05/07 06:57:02;;;;;;;18.90;10.68;;;;;16.00;96851.00;;;;8415870;28;20302;-67
2022/05/07 07:01:06;;;;;;;14.48;10.57;;;;;16.10;96842.00;;;;8414710;28;20246;-68
2022/05/07 07:05:11;;;;;;;15.27;10.40;;;;;16.30;96852.00;;;;8417894;28;20277;-69
2022/05/07 07:09:14;;;;;;;21.55;10.77;;;;;16.40;96849.00;;;;8412321;28;20225;-67
2022/05/07 07:13:17;;;;;;;20.90;11.18;;;;;16.60;96843.00;;;;8409259;28;20314;-68
2022/05/07 07:17:23;;;;;;;18.13;11.35;;;;;16.80;96846.00;;;;8423052;28;20309;-67
2022/05/07 07:21:27;;;;;;;16.50;11.80;;;;;16.90;96850.00;;;;8407023;28;20235;-67
2022/05/07 07:25:31;;;;;;;14.45;11.38;;;;;17.10;96850.00;;;;8359427;28;20332;-67
2022/05/07 07:29:34;;;;;;;16.15;10.10;;;;;17.50;96856.00;;;;8443821;27;20227;-69
2022/05/07 07:33:38;;;;;;;18.20;10.63;;;;;17.90;96852.00;;;;8447293;27;20444;-69
2022/05/07 07:37:45;;;;;;;17.27;10.70;;;;;18.00;96851.00;;;;8442433;28;20313;-71
2022/05/07 07:41:49;;;;;;;17.42;10.70;;;;;18.00;96849.00;;;;8440135;28;20218;-67
2022/05/07 07:50:12;;;;;;;17.20;11.00;;;;;18.00;96849.00;;;;8440122;28;20314;-68
2022/05/07 07:54:17;;;;;;;18.05;10.18;;;;;18.10;96860.00;;;;8426305;27;20218;-72
2022/05/07 07:58:20;;;;;;;17.45;10.38;;;;;18.30;96852.00;;;;8430756;28;20819;-70
2022/05/07 08:02:23;;;;;;;13.63;10.38;;;;;18.70;96856.00;;;;8413192;28;20246;-66
2022/05/07 08:06:27;;;;;;;16.38;9.80;;;;;19.40;96860.00;;;;8447181;27;20276;-69
2022/05/07 08:14:52;;;;;;;16.48;10.88;;;;;20.80;96861.00;;;;8430748;28;20226;-67
2022/05/07 08:18:57;;;;;;;17.83;11.55;;;;;21.40;96863.00;;;;8420830;28;20222;-67
2022/05/07 08:23:00;;;;;;;13.38;10.80;;;;;21.70;96865.00;;;;8411687;27;20319;-68
2022/05/07 08:27:07;;;;;;;13.57;10.00;;;;;21.90;96863.00;;;;8440324;27;20560;-68
2022/05/07 08:31:11;;;;;;;13.77;10.50;;;;;22.40;96867.00;;;;8368510;27;20776;-68
2022/05/07 08:35:14;;;;;;;13.75;10.32;;;;;22.00;96869.00;;;;8451725;27;20702;-67
2022/05/07 08:39:18;;;;;;;16.15;10.52;;;;;21.80;96863.00;;;;8431358;28;20226;-70
2022/05/07 08:43:22;;;;;;;14.45;10.13;;;;;21.70;96864.00;;;;8449016;27;20230;-68
2022/05/07 08:47:25;;;;;;;15.32;10.25;;;;;21.80;96865.00;;;;8440420;27;20256;-67
2022/05/07 08:51:30;;;;;;;19.35;11.48;;;;;21.50;96868.00;;;;8435274;27;20218;-69
2022/05/07 08:55:33;;;;;;;17.90;10.93;;;;;21.20;96868.00;;;;8443575;27;20234;-67
2022/05/07 08:59:39;;;;;;;13.43;11.18;;;;;21.60;96867.00;;;;8414070;27;20313;-71
2022/05/07 09:03:44;;;;;;;14.20;10.50;;;;;22.10;96865.00;;;;8346580;28;20234;-69
2022/05/07 09:07:54;;;;;;;14.85;9.88;;;;;22.40;96860.00;;;;8400159;28;20232;-66
2022/05/07 09:11:58;;;;;;;13.85;10.05;;;;;22.90;96860.00;;;;8431020;28;20233;-67
2022/05/07 09:16:04;;;;;;;15.93;11.18;;;;;23.10;96862.00;;;;8392650;27;20233;-68
2022/05/07 09:20:14;;;;;;;14.32;10.68;;;;;23.40;96863.00;;;;8441701;28;20237;-69
2022/05/07 09:24:18;;;;;;;14.50;10.15;;;;;23.20;96861.00;;;;8379117;27;20330;-69
2022/05/07 09:28:28;;;;;;;15.30;11.25;;;;;23.20;96869.00;;;;8446483;27;20224;-69
2022/05/07 09:32:40;;;;;;;16.65;10.75;;;;;23.50;96864.00;;;;8430568;28;20226;-72
2022/05/07 09:36:43;;;;;;;20.27;11.23;;;;;23.20;96869.00;;;;8414898;27;20233;-68
2022/05/07 09:40:46;;;;;;;14.65;9.70;;;;;22.90;96867.00;;;;8438819;28;20222;-68
2022/05/07 09:44:50;;;;;;;17.15;10.93;;;;;22.20;96856.00;;;;8439037;27;20225;-67
2022/05/07 09:48:56;;;;;;;14.95;11.23;;;;;22.20;96862.00;;;;8440772;27;20226;-68
2022/05/07 09:57:32;;;;;;;17.40;11.10;;;;;23.80;96850.00;;;;8447543;28;20231;-69
2022/05/07 10:01:46;;;;;;;13.85;11.05;;;;;23.20;96846.00;;;;8426957;28;20284;-68
2022/05/07 10:06:04;;;;;;;14.65;10.70;;;;;23.20;96852.00;;;;8443401;27;20234;-68
2022/05/07 10:10:21;;;;;;;15.18;9.93;;;;;22.80;96841.00;;;;8444349;27;20216;-67
2022/05/07 10:14:27;;;;;;;14.05;10.15;;;;;22.20;96843.00;;;;8433926;28;20227;-69
2022/05/07 10:18:38;;;;;;;10.15;9.05;;;;;21.90;96835.00;;;;8445914;28;20301;-70
2022/05/07 10:22:43;;;;;;;11.35;9.23;;;;;22.00;96830.00;;;;8437431;28;20296;-70
2022/05/07 10:26:47;;;;;;;12.00;9.38;;;;;21.90;96834.00;;;;8446240;28;20229;-66
2022/05/07 10:30:52;;;;;;;14.57;8.85;;;;;21.60;96833.00;;;;8433631;28;20653;-69
2022/05/07 10:34:56;;;;;;;14.88;9.80;;;;;21.70;96833.00;;;;8436668;28;20705;-69
2022/05/07 10:39:09;;;;;;;14.10;9.18;;;;;22.00;96832.00;;;;8438209;28;20317;-67
2022/05/07 10:43:12;;;;;;;10.80;8.90;;;;;22.50;96833.00;;;;8433842;28;20341;-69
2022/05/07 10:47:17;;;;;;;12.10;9.32;;;;;22.50;96838.00;;;;8432893;28;20229;-69
2022/05/07 10:51:22;;;;;;;18.05;9.75;;;;;22.50;96824.00;;;;8441687;27;20246;-70
2022/05/07 10:55:29;;;;;;;11.90;9.45;;;;;22.50;96830.00;;;;8448325;28;20588;-70
2022/05/07 10:59:33;;;;;;;15.40;8.85;;;;;22.60;96832.00;;;;8435703;28;20687;-70
2022/05/07 11:03:36;;;;;;;12.50;8.63;;;;;22.60;96827.00;;;;8439240;28;20222;-68
2022/05/07 11:07:39;;;;;;;12.52;9.02;;;;;22.40;96828.00;;;;8436296;28;20318;-69
2022/05/07 11:11:49;;;;;;;14.45;10.35;;;;;22.00;96834.00;;;;8445491;28;20225;-68
2022/05/07 11:16:04;;;;;;;14.88;9.48;;;;;21.80;96830.00;;;;8450366;27;20617;-68
2022/05/07 11:20:08;;;;;;;12.20;10.50;;;;;21.60;96832.00;;;;8446081;27;20312;-68
2022/05/07 11:24:11;;;;;;;13.25;10.48;;;;;21.40;96834.00;;;;8441322;27;20276;-73
2022/05/07 11:28:16;;;;;;;18.70;10.50;;;;;21.30;96821.00;;;;8452174;27;20211;-68
2022/05/07 11:32:19;;;;;;;13.05;10.00;;;;;21.20;96821.00;;;;8445953;27;20215;-67
2022/05/07 11:36:26;;;;;;;13.68;9.75;;;;;21.30;96816.00;;;;8458684;27;20732;-68
2022/05/07 11:40:31;;;;;;;14.13;9.52;;;;;21.50;96823.00;;;;8442193;27;20695;-70
2022/05/07 11:49:07;;;;;;;12.90;8.80;;;;;23.90;96817.00;;;;8428367;27;20321;-69
2022/05/07 11:53:12;;;;;;;11.02;8.95;;;;;24.50;96818.00;;;;8443350;27;20313;-70
2022/05/07 11:57:15;;;;;;;12.90;9.32;;;;;25.30;96813.00;;;;8447291;27;20321;-68
2022/05/07 12:01:28;;;;;;;11.15;8.90;;;;;26.70;96806.00;;;;8437022;27;20339;-72
2022/05/07 12:05:40;;;;;;;18.17;8.13;;;;;26.90;96801.00;;;;8447577;27;20234;-70
2022/05/07 12:09:43;;;;;;;8.68;7.25;;;;;27.00;96804.00;;;;8428519;27;21288;-70
2022/05/07 12:13:48;;;;;;;8.60;6.88;;;;;26.70;96809.00;;;;8443594;27;20297;-69
2022/05/07 12:17:53;;;;;;;7.60;6.68;;;;;25.80;96798.00;;;;8440919;27;20222;-71
2022/05/07 12:30:37;;;;;;;9.88;6.72;;;;;24.20;96801.00;;;;8407067;27;20222;-73
2022/05/07 12:34:44;;;;;;;7.68;5.65;;;;;24.50;96807.00;;;;8440462;27;20311;-68
2022/05/07 12:38:47;;;;;;;6.50;5.90;;;;;24.50;96806.00;;;;8437707;27;20233;-68
2022/05/07 12:42:51;;;;;;;6.18;5.68;;;;;24.30;96795.00;;;;8442581;27;20218;-70
2022/05/07 12:46:55;;;;;;;6.50;5.80;;;;;24.10;96806.00;;;;8440662;27;20272;-69
2022/05/07 12:51:00;;;;;;;6.95;6.35;;;;;24.00;96794.00;;;;8443766;27;20718;-68
2022/05/07 12:55:04;;;;;;;9.25;6.57;;;;;24.10;96797.00;;;;8437504;28;20258;-68
2022/05/07 12:59:07;;;;;;;7.10;6.45;;;;;24.40;96796.00;;;;8445537;27;20230;-68
2022/05/07 13:03:10;;;;;;;7.22;6.53;;;;;24.60;96788.00;;;;8436848;27;20230;-69
2022/05/07 13:07:15;;;;;;;7.13;6.43;;;;;24.90;96782.00;;;;8441721;27;20227;-70
2022/05/07 13:11:18;;;;;;;6.75;6.05;;;;;25.20;96783.00;;;;8433442;27;20228;-71
2022/05/07 13:15:21;;;;;;;7.55;6.18;;;;;25.00;96778.00;;;;8441429;27;20223;-69
2022/05/07 13:19:25;;;;;;;7.10;6.40;;;;;24.80;96776.00;;;;8441941;27;20269;-70
2022/05/07 13:23:30;;;;;;;6.75;5.75;;;;;24.60;96772.00;;;;8438171;27;20337;-72
2022/05/07 13:27:35;;;;;;;6.50;5.90;;;;;24.50;96773.00;;;;8444487;27;20716;-68
2022/05/07 13:31:38;;;;;;;9.50;6.20;;;;;24.70;96775.00;;;;8435545;27;20341;-69
2022/05/07 13:35:42;;;;;;;6.88;6.18;;;;;24.80;96776.00;;;;8440258;27;20357;-69
2022/05/07 13:39:46;;;;;;;8.52;6.50;;;;;24.50;96774.00;;;;8439556;27;20404;-69
2022/05/07 13:43:50;;;;;;;9.25;7.50;;;;;23.90;96777.00;;;;8425010;28;20234;-68
2022/05/07 13:47:53;;;;;;;15.02;8.85;;;;;22.10;96784.00;;;;8438924;27;20454;-68
2022/05/07 13:51:59;;;;;;;13.60;8.95;;;;;20.70;96789.00;;;;8437943;27;20226;-68
2022/05/07 13:56:05;;;;;;;19.33;11.00;;;;;19.40;96789.00;;;;8445703;27;20235;-70
2022/05/07 14:00:09;;;;;;;15.80;9.68;;;;;18.40;96779.00;;;;8438686;27;20221;-67
2022/05/07 14:04:14;;;;;;;11.48;8.15;;;;;17.40;96769.00;;;;8439751;27;20238;-68
2022/05/07 14:08:17;;;;;;;15.80;9.20;;;;;16.50;96773.00;;;;8439811;28;20237;-70
2022/05/07 14:12:21;;;;;;;15.32;10.93;;;;;16.30;96775.00;;;;8439453;28;20214;-69
2022/05/07 14:16:25;;;;;;;16.17;10.60;;;;;16.10;96760.00;;;;8432977;28;20329;-69
2022/05/07 14:20:28;;;;;;;14.98;9.13;;;;;16.20;96753.00;;;;8431695;28;21126;-72
2022/05/07 14:24:32;;;;;;;22.35;10.98;;;;;16.70;96752.00;;;;8427825;28;20226;-71
2022/05/07 14:28:36;;;;;;;20.02;11.50;;;;;17.00;96745.00;;;;8435360;28;20226;-72
2022/05/07 14:32:40;;;;;;;17.10;11.43;;;;;17.30;96745.00;;;;8440469;28;20218;-70
2022/05/07 14:36:44;;;;;;;18.52;11.80;;;;;17.70;96749.00;;;;8440733;28;20283;-75
2022/05/07 14:40:48;;;;;;;16.92;11.38;;;;;18.30;96756.00;;;;8440101;28;20731;-67
2022/05/07 14:44:53;;;;;;;14.73;10.38;;;;;18.80;96753.00;;;;8442977;28;20233;-68
2022/05/07 14:48:56;;;;;;;17.60;11.10;;;;;19.10;96747.00;;;;8448764;28;20226;-72
2022/05/07 14:53:00;;;;;;;16.67;10.93;;;;;19.20;96746.00;;;;8446172;28;20218;-73
2022/05/07 14:57:03;;;;;;;14.23;10.38;;;;;19.40;96754.00;;;;8450016;27;20219;-74
2022/05/07 15:01:08;;;;;;;14.23;9.73;;;;;19.50;96760.00;;;;8449751;27;20301;-77
2022/05/07 15:05:13;;;;;;;14.50;10.27;;;;;19.20;96762.00;;;;8447618;27;20706;-73
2022/05/07 15:13:38;;;;;;;14.77;10.18;;;;;18.30;96764.00;;;;8447935;27;20246;-73
2022/05/07 15:17:43;;;;;;;28.58;14.45;;;;;17.90;96766.00;;;;8445406;27;20226;-73
2022/05/07 15:21:46;;;;;;;18.00;11.55;;;;;17.60;96765.00;;;;8437786;27;20601;-74
2022/05/07 15:25:49;;;;;;;9.98;7.28;;;;;17.30;96760.00;;;;8442239;27;20675;-74
2022/05/07 15:29:52;;;;;;;6.50;4.80;;;;;16.90;96751.00;;;;8448033;27;20228;-72
2022/05/07 15:38:18;;;;;;;9.77;5.10;;;;;16.10;96747.00;;;;8438991;27;22221;-70
2022/05/07 15:42:21;;;;;;;12.50;5.32;;;;;16.20;96754.00;;;;8444286;27;20667;-74
2022/05/07 15:46:26;;;;;;;8.93;5.60;;;;;16.30;96754.00;;;;8438339;27;20245;-75
2022/05/07 15:50:33;;;;;;;16.13;10.50;;;;;16.40;96756.00;;;;8439336;27;20314;-76
2022/05/07 15:54:36;;;;;;;9.88;7.32;;;;;16.60;96754.00;;;;8443256;27;20590;-78
2022/05/07 15:58:41;;;;;;;12.48;7.50;;;;;16.70;96745.00;;;;8448648;27;20994;-79
2022/05/07 16:02:44;;;;;;;8.32;5.88;;;;;16.80;96749.00;;;;8448836;27;20250;-79
2022/05/07 16:06:49;;;;;;;6.53;5.57;;;;;17.00;96735.00;;;;8449095;27;20939;-78
2022/05/07 16:11:11;;;;;;;9.25;6.40;;;;;17.10;96735.00;;;;8447488;27;20708;-77
2022/05/07 16:15:21;;;;;;;9.57;6.60;;;;;17.20;96733.00;;;;8448535;27;20625;-77
2022/05/07 16:19:25;;;;;;;8.35;6.28;;;;;17.10;96740.00;;;;8450235;27;20317;-76
2022/05/07 16:27:46;;;;;;;9.75;6.97;;;;;17.00;96726.00;;;;8397324;28;20226;-75
2022/05/07 16:31:50;;;;;;;9.00;7.10;;;;;17.10;96722.00;;;;8446045;27;20799;-75
2022/05/07 16:35:53;;;;;;;10.23;7.60;;;;;17.00;96727.00;;;;8448528;27;20236;-74
2022/05/07 16:39:58;;;;;;;9.20;7.32;;;;;17.20;96730.00;;;;8448282;27;20230;-76
2022/05/07 16:44:02;;;;;;;10.40;7.53;;;;;17.40;96720.00;;;;8447620;27;20218;-75
2022/05/07 16:48:06;;;;;;;9.77;7.70;;;;;17.50;96722.00;;;;8450193;27;20229;-76
2022/05/07 16:52:10;;;;;;;13.35;7.55;;;;;17.50;96725.00;;;;8445529;27;20227;-75
2022/05/07 16:56:14;;;;;;;12.95;7.93;;;;;17.50;96720.00;;;;8446587;28;20224;-75
2022/05/07 17:00:20;;;;;;;9.40;7.60;;;;;17.40;96720.00;;;;8447081;28;20226;-76
2022/05/07 17:04:24;;;;;;;11.88;7.88;;;;;17.20;96723.00;;;;8445469;27;20222;-74
2022/05/07 17:08:27;;;;;;;10.40;7.63;;;;;17.10;96727.00;;;;8450880;27;20333;-76
2022/05/07 17:12:32;;;;;;;12.18;8.10;;;;;17.10;96728.00;;;;8447342;28;20227;-75
2022/05/07 17:16:35;;;;;;;11.63;7.50;;;;;17.10;96723.00;;;;8440580;28;20242;-73
2022/05/07 17:20:40;;;;;;;17.63;9.20;;;;;17.00;96733.00;;;;8444446;27;20370;-73
2022/05/07 17:24:43;;;;;;;12.05;8.80;;;;;16.90;96739.00;;;;8432480;28;20293;-74
2022/05/07 17:28:48;;;;;;;12.10;8.88;;;;;16.90;96741.00;;;;8443640;27;20652;-74
2022/05/07 17:32:52;;;;;;;14.63;9.88;;;;;16.80;96739.00;;;;8440251;27;20246;-74
2022/05/07 17:36:55;;;;;;;15.55;9.73;;;;;16.80;96741.00;;;;8444708;28;20230;-75
2022/05/07 17:40:58;;;;;;;12.98;9.38;;;;;16.80;96733.00;;;;8431506;28;20226;-74
2022/05/07 17:45:03;;;;;;;13.82;10.05;;;;;16.80;96734.00;;;;8441374;28;20944;-74
2022/05/07 17:49:19;;;;;;;12.18;9.63;;;;;16.80;96734.00;;;;8440375;27;20227;-74
2022/05/07 17:53:22;;;;;;;13.05;10.18;;;;;16.60;96735.00;;;;8438226;27;20218;-71
2022/05/07 17:57:26;;;;;;;12.70;9.98;;;;;16.30;96741.00;;;;8444136;27;20718;-69
2022/05/07 18:01:31;;;;;;;19.60;11.10;;;;;15.90;96732.00;;;;8445817;27;20235;-71
2022/05/07 18:05:35;;;;;;;13.25;10.18;;;;;15.60;96729.00;;;;8436511;27;20230;-73
2022/05/07 18:09:38;;;;;;;16.58;9.50;;;;;15.40;96732.00;;;;8441329;27;20244;-73
2022/05/07 18:13:42;;;;;;;15.82;10.60;;;;;15.20;96734.00;;;;8450014;27;20275;-72
2022/05/07 18:17:46;;;;;;;13.95;10.13;;;;;15.00;96728.00;;;;8446590;27;20978;-72
2022/05/07 18:21:50;;;;;;;15.43;10.07;;;;;14.80;96728.00;;;;8451880;27;20570;-74
2022/05/07 18:25:53;;;;;;;25.25;11.50;;;;;14.60;96727.00;;;;8453855;27;20230;-73
2022/05/07 18:29:56;;;;;;;13.00;10.63;;;;;14.40;96735.00;;;;8447458;27;20313;-72
2022/05/07 18:34:03;;;;;;;17.80;11.80;;;;;14.10;96742.00;;;;8452907;27;21028;-72
2022/05/07 18:46:48;;;;;;;15.50;10.82;;;;;13.40;96747.00;;;;8449638;27;20222;-73
2022/05/07 18:50:52;;;;;;;17.75;11.35;;;;;13.20;96756.00;;;;8465874;27;20735;-74
2022/05/07 18:54:56;;;;;;;21.63;11.85;;;;;13.00;96750.00;;;;8456593;27;20233;-74
2022/05/07 18:58:58;;;;;;;16.67;10.68;;;;;12.90;96752.00;;;;8461176;27;20258;-73
2022/05/07 19:03:02;;;;;;;18.10;11.15;;;;;12.70;96757.00;;;;8453082;27;20997;-73
2022/05/07 19:07:06;;;;;;;20.00;12.75;;;;;12.50;96760.00;;;;8464465;27;20217;-73
2022/05/07 19:11:11;;;;;;;18.30;11.90;;;;;12.30;96760.00;;;;8455251;27;20338;-74
2022/05/07 19:15:14;;;;;;;18.70;10.90;;;;;12.20;96745.00;;;;8454510;27;20227;-74
2022/05/07 19:19:20;;;;;;;19.33;11.27;;;;;12.10;96755.00;;;;8451934;27;20308;-74
2022/05/07 19:23:25;;;;;;;21.70;10.88;;;;;12.00;96760.00;;;;8449021;27;20301;-74
2022/05/07 19:27:32;;;;;;;20.23;11.68;;;;;11.90;96770.00;;;;8456073;27;20237;-74
2022/05/07 19:31:36;;;;;;;22.13;13.20;;;;;11.80;96768.00;;;;8454928;27;20393;-73
2022/05/07 19:35:39;;;;;;;15.45;11.07;;;;;11.70;96769.00;;;;8449750;27;20303;-74
2022/05/07 19:39:44;;;;;;;17.17;11.77;;;;;11.60;96780.00;;;;8449331;27;20856;-73
2022/05/07 19:43:47;;;;;;;25.90;13.60;;;;;11.50;96776.00;;;;8447382;27;20310;-73
2022/05/07 19:47:50;;;;;;;28.73;16.63;;;;;11.40;96780.00;;;;8442805;27;20252;-72
2022/05/07 19:51:54;;;;;;;27.83;15.52;;;;;11.40;96786.00;;;;8443731;27;20323;-72
2022/05/07 19:55:59;;;;;;;29.60;16.95;;;;;11.40;96788.00;;;;8446640;27;20279;-72
2022/05/07 20:00:03;;;;;;;25.95;15.82;;;;;11.40;96780.00;;;;8449363;27;20811;-73
2022/05/07 20:04:07;;;;;;;31.80;16.60;;;;;11.30;96791.00;;;;8441141;27;20732;-71
2022/05/07 20:08:11;;;;;;;31.23;16.00;;;;;11.20;96796.00;;;;8448394;27;20282;-72
2022/05/07 20:12:20;;;;;;;33.95;16.45;;;;;11.30;96784.00;;;;8454339;27;20245;-72
2022/05/07 20:16:23;;;;;;;43.10;20.23;;;;;11.30;96798.00;;;;8449834;27;20245;-73
2022/05/07 20:21:48;;;;;;;35.17;17.80;;;;;11.20;96795.00;;;;8449871;27;20256;-72
2022/05/07 20:24:51;;;;;;;40.65;20.65;;;;;11.20;96792.00;;;;8436617;27;20224;-73
2022/05/07 20:28:56;;;;;;;39.40;20.20;;;;;11.20;96791.00;;;;8441883;27;20243;-72
2022/05/07 20:32:59;;;;;;;36.33;19.10;;;;;11.10;96797.00;;;;8435462;28;20232;-72
2022/05/07 20:37:03;;;;;;;31.95;17.65;;;;;11.10;96798.00;;;;8442514;27;20310;-73
2022/05/07 20:41:06;;;;;;;36.05;17.65;;;;;11.10;96797.00;;;;8447129;27;20229;-73
2022/05/07 20:49:38;;;;;;;32.20;16.42;;;;;10.90;96802.00;;;;8447141;27;20333;-73
2022/05/07 20:53:41;;;;;;;29.33;15.50;;;;;10.80;96807.00;;;;8449321;27;20315;-72
2022/05/07 20:57:44;;;;;;;30.65;15.20;;;;;10.80;96798.00;;;;8447067;27;20228;-73
2022/05/07 21:01:50;;;;;;;29.05;14.05;;;;;10.80;96803.00;;;;8446566;28;20687;-73
2022/05/07 21:05:54;;;;;;;29.10;15.25;;;;;10.70;96799.00;;;;8439862;27;20241;-73
2022/05/07 21:09:57;;;;;;;22.58;13.32;;;;;10.60;96809.00;;;;8445450;27;20230;-72